Time;durP1;ratioP1;P1;durP2;ratioP2;P2;SDS_P1;SDS_P2;PMS_P1;PMS_P2;Temp;Humidity;BMP_temperature;BMP_pressure;BME280_temperature;BME280_humidity;BME280_pressure;Samples;Min_cycle;Max_cycle;Signal;HPM_P1;HPM_P2
2022/06/16 00:00:53;;;;;;;6.35;2.25;;;;;;;;;;5050363;28;20056;-40
2022/06/16 00:03:19;;;;;;;5.47;2.20;;;;;;;;;;5051117;28;20025;-40
2022/06/16 00:05:45;;;;;;;6.10;2.30;;;;;;;;;;5049470;28;20074;-40
2022/06/16 00:08:12;;;;;;;2.22;2.03;;;;;;;;;;5050816;28;20033;-40
2022/06/16 00:10:37;;;;;;;2.25;1.70;;;;;;;;;;5050681;28;20036;-40
2022/06/16 00:13:03;;;;;;;5.18;1.75;;;;;;;;;;5050894;28;20022;-39
2022/06/16 00:15:29;;;;;;;6.70;2.33;;;;;;;;;;5050416;28;20407;-40
2022/06/16 00:17:55;;;;;;;2.95;2.35;;;;;;;;;;5051741;28;20101;-40
2022/06/16 00:20:21;;;;;;;2.17;1.90;;;;;;;;;;5051149;28;20021;-40
2022/06/16 00:22:47;;;;;;;2.28;2.17;;;;;;;;;;5051327;28;20036;-39
2022/06/16 00:25:13;;;;;;;2.60;1.98;;;;;;;;;;5051517;28;20025;-40
2022/06/16 00:27:38;;;;;;;2.60;2.00;;;;;;;;;;5051135;28;20467;-40
2022/06/16 00:30:04;;;;;;;2.40;2.20;;;;;;;;;;5051244;28;20057;-40
2022/06/16 00:32:30;;;;;;;4.40;2.42;;;;;;;;;;5051105;28;20478;-40
2022/06/16 00:34:56;;;;;;;1.95;1.85;;;;;;;;;;5049782;28;20036;-40
2022/06/16 00:37:21;;;;;;;4.57;2.72;;;;;;;;;;5049843;28;20041;-40
2022/06/16 00:39:47;;;;;;;3.88;2.40;;;;;;;;;;5051118;28;20413;-40
2022/06/16 00:42:17;;;;;;;4.00;2.00;;;;;;;;;;5049861;28;20041;-40
2022/06/16 00:44:44;;;;;;;5.43;2.00;;;;;;;;;;5050977;28;20025;-39
2022/06/16 00:47:10;;;;;;;1.85;1.70;;;;;;;;;;5051097;28;20029;-40
2022/06/16 00:49:38;;;;;;;3.25;2.28;;;;;;;;;;5049595;28;20048;-40
2022/06/16 00:52:15;;;;;;;2.38;1.90;;;;;;;;;;5051287;28;20086;-39
2022/06/16 00:54:41;;;;;;;6.03;2.58;;;;;;;;;;5050827;28;20029;-40
2022/06/16 00:57:13;;;;;;;4.35;2.45;;;;;;;;;;5050966;28;20090;-40
2022/06/16 00:59:39;;;;;;;3.58;2.15;;;;;;;;;;5050930;28;20116;-40
2022/06/16 01:02:05;;;;;;;5.43;2.13;;;;;;;;;;5049494;28;20032;-40
2022/06/16 01:07:23;;;;;;;1.83;1.70;;;;;;;;;;5050943;28;20035;-40
2022/06/16 01:09:51;;;;;;;4.15;3.13;;;;;;;;;;5050814;28;20044;-40
2022/06/16 01:15:07;;;;;;;4.95;2.72;;;;;;;;;;5052813;28;20549;-40
2022/06/16 01:17:41;;;;;;;4.22;3.03;;;;;;;;;;5054713;28;20040;-40
2022/06/16 01:20:25;;;;;;;2.72;2.53;;;;;;;;;;5053297;28;20489;-40
2022/06/16 01:23:11;;;;;;;3.80;3.05;;;;;;;;;;5054584;28;20025;-40
2022/06/16 01:25:56;;;;;;;3.13;2.70;;;;;;;;;;5054314;28;20036;-40
2022/06/16 01:28:34;;;;;;;6.30;2.97;;;;;;;;;;5042521;28;20487;-40
2022/06/16 01:30:59;;;;;;;4.30;2.85;;;;;;;;;;5054275;28;20033;-40
2022/06/16 01:33:33;;;;;;;3.08;2.67;;;;;;;;;;5052925;28;20374;-39
2022/06/16 01:35:59;;;;;;;5.40;3.00;;;;;;;;;;5052966;28;20076;-39
2022/06/16 01:38:31;;;;;;;3.58;2.58;;;;;;;;;;5054072;28;20371;-40
2022/06/16 01:41:06;;;;;;;5.40;2.60;;;;;;;;;;5054258;28;20428;-40
2022/06/16 01:43:36;;;;;;;3.17;2.88;;;;;;;;;;5052773;28;20040;-40
2022/06/16 01:46:02;;;;;;;4.18;2.83;;;;;;;;;;5052791;28;20398;-39
2022/06/16 01:48:28;;;;;;;3.05;2.45;;;;;;;;;;5052693;28;20071;-40
2022/06/16 01:51:09;;;;;;;3.33;2.65;;;;;;;;;;5052681;28;20032;-40
2022/06/16 01:53:37;;;;;;;4.57;2.30;;;;;;;;;;5052594;28;20068;-39
2022/06/16 01:56:12;;;;;;;6.45;3.10;;;;;;;;;;5054113;28;20033;-40
2022/06/16 01:58:40;;;;;;;3.05;2.50;;;;;;;;;;5052428;28;20029;-39
2022/06/16 02:01:07;;;;;;;5.60;3.13;;;;;;;;;;5052427;28;20462;-40
2022/06/16 02:03:36;;;;;;;2.47;2.15;;;;;;;;;;5053785;28;20470;-40
2022/06/16 02:06:08;;;;;;;4.07;3.47;;;;;;;;;;5053619;28;20040;-40
2022/06/16 02:08:35;;;;;;;;;;;;;;;;;;5052738;28;20368;-40
2022/06/16 02:11:12;;;;;;;3.00;2.70;;;;;;;;;;5053650;28;19950;-40
2022/06/16 02:13:42;;;;;;;3.05;2.75;;;;;;;;;;5053331;28;20060;-40
2022/06/16 02:16:13;;;;;;;4.30;2.67;;;;;;;;;;5053701;28;20068;-40
2022/06/16 02:18:41;;;;;;;6.35;3.17;;;;;;;;;;5052081;28;20387;-40
2022/06/16 02:21:20;;;;;;;5.13;2.50;;;;;;;;;;5053634;28;20059;-40
2022/06/16 02:23:46;;;;;;;2.90;2.70;;;;;;;;;;5053066;28;20475;-40
2022/06/16 02:26:12;;;;;;;7.70;2.97;;;;;;;;;;5053383;28;20021;-40
2022/06/16 02:28:57;;;;;;;5.82;2.95;;;;;;;;;;5053359;28;20029;-40
2022/06/16 02:31:45;;;;;;;3.53;2.85;;;;;;;;;;5053271;28;20051;-40
2022/06/16 02:34:11;;;;;;;4.03;3.20;;;;;;;;;;5052600;28;20056;-40
2022/06/16 02:36:45;;;;;;;3.72;2.72;;;;;;;;;;5053152;28;20032;-40
2022/06/16 02:39:26;;;;;;;3.00;2.67;;;;;;;;;;5053179;28;20079;-40
2022/06/16 02:41:54;;;;;;;2.90;2.60;;;;;;;;;;5051695;28;20494;-40
2022/06/16 02:44:39;;;;;;;4.00;2.75;;;;;;;;;;5051691;28;20019;-40
2022/06/16 02:47:09;;;;;;;3.42;3.08;;;;;;;;;;5052902;28;20037;-40
2022/06/16 02:49:51;;;;;;;3.58;2.97;;;;;;;;;;5051419;28;20025;-40
2022/06/16 02:52:23;;;;;;;4.67;2.97;;;;;;;;;;5053149;28;20037;-40
2022/06/16 02:55:05;;;;;;;3.95;2.80;;;;;;;;;;5051400;28;20037;-40
2022/06/16 02:57:34;;;;;;;2.83;2.22;;;;;;;;;;5051337;28;20090;-40
2022/06/16 03:00:03;;;;;;;5.13;2.78;;;;;;;;;;5051302;28;20521;-40
2022/06/16 03:02:29;;;;;;;3.15;2.70;;;;;;;;;;5051280;28;20031;-40
2022/06/16 03:04:56;;;;;;;2.75;2.55;;;;;;;;;;5051261;28;20402;-40
2022/06/16 03:07:23;;;;;;;3.58;2.95;;;;;;;;;;5051293;28;20083;-40
2022/06/16 03:10:03;;;;;;;3.00;2.63;;;;;;;;;;5051152;28;20025;-39
2022/06/16 03:12:29;;;;;;;8.18;2.53;;;;;;;;;;5034553;28;20033;-39
2022/06/16 03:14:55;;;;;;;3.75;3.03;;;;;;;;;;5050967;28;20071;-40
2022/06/16 03:17:24;;;;;;;3.20;2.90;;;;;;;;;;5050927;28;20032;-39
2022/06/16 03:19:49;;;;;;;4.53;3.10;;;;;;;;;;5052329;28;20029;-40
2022/06/16 03:22:18;;;;;;;4.50;2.75;;;;;;;;;;5052281;28;20056;-40
2022/06/16 03:24:44;;;;;;;3.03;2.78;;;;;;;;;;5050800;28;20024;-39
2022/06/16 03:27:11;;;;;;;8.20;3.30;;;;;;;;;;5050886;28;20041;-39
2022/06/16 03:29:39;;;;;;;5.32;3.10;;;;;;;;;;5050737;28;20083;-40
2022/06/16 03:32:08;;;;;;;5.50;3.47;;;;;;;;;;5050792;28;20036;-40
2022/06/16 03:34:33;;;;;;;3.08;2.78;;;;;;;;;;5050597;28;20016;-40
2022/06/16 03:37:01;;;;;;;3.13;2.83;;;;;;;;;;5049943;28;20051;-40
2022/06/16 03:39:37;;;;;;;3.72;3.22;;;;;;;;;;5035343;28;20364;-40
2022/06/16 03:42:03;;;;;;;4.05;2.70;;;;;;;;;;5050691;28;20036;-40
2022/06/16 03:44:28;;;;;;;3.60;2.65;;;;;;;;;;5050563;28;20430;-40
2022/06/16 03:46:54;;;;;;;3.42;2.83;;;;;;;;;;5050452;28;20040;-39
2022/06/16 03:49:29;;;;;;;6.63;2.80;;;;;;;;;;5050443;28;20023;-41
2022/06/16 03:51:54;;;;;;;2.92;2.63;;;;;;;;;;5050447;28;20478;-40
2022/06/16 03:54:25;;;;;;;3.63;3.08;;;;;;;;;;5050344;28;20246;-39
2022/06/16 03:56:56;;;;;;;3.20;2.75;;;;;;;;;;5050281;28;20036;-41
2022/06/16 03:59:22;;;;;;;5.20;2.97;;;;;;;;;;5051565;28;20028;-39
2022/06/16 04:01:50;;;;;;;4.50;2.90;;;;;;;;;;5050294;28;20028;-39
2022/06/16 04:04:16;;;;;;;3.25;2.95;;;;;;;;;;5050327;28;20134;-40
2022/06/16 04:06:45;;;;;;;3.65;3.15;;;;;;;;;;5050402;28;20120;-39
2022/06/16 04:09:11;;;;;;;5.20;2.70;;;;;;;;;;5050099;28;20094;-40
2022/06/16 04:11:37;;;;;;;4.15;2.83;;;;;;;;;;5050105;28;20065;-40
2022/06/16 04:14:07;;;;;;;6.50;3.15;;;;;;;;;;5049888;28;20053;-40
2022/06/16 04:16:36;;;;;;;3.17;2.60;;;;;;;;;;5049958;28;20486;-40
2022/06/16 04:19:02;;;;;;;3.00;2.58;;;;;;;;;;5050121;28;20119;-40
2022/06/16 04:21:28;;;;;;;3.47;3.13;;;;;;;;;;5049847;28;20116;-40
2022/06/16 04:24:13;;;;;;;5.22;2.85;;;;;;;;;;5051358;28;20094;-39
2022/06/16 04:26:39;;;;;;;4.78;2.78;;;;;;;;;;5049915;28;20033;-40
2022/06/16 04:29:06;;;;;;;6.35;2.90;;;;;;;;;;5049905;28;20025;-40
2022/06/16 04:31:32;;;;;;;4.93;3.05;;;;;;;;;;5049861;28;20048;-40
2022/06/16 04:33:58;;;;;;;5.72;3.45;;;;;;;;;;5049939;28;20017;-39
2022/06/16 04:36:25;;;;;;;3.15;2.90;;;;;;;;;;5049671;28;20037;-40
2022/06/16 04:39:00;;;;;;;3.10;2.85;;;;;;;;;;5049906;28;20017;-40
2022/06/16 04:41:26;;;;;;;8.35;3.33;;;;;;;;;;5049777;28;20044;-39
2022/06/16 04:43:52;;;;;;;3.47;2.63;;;;;;;;;;5049751;28;20025;-40
2022/06/16 04:46:18;;;;;;;5.88;2.67;;;;;;;;;;5049888;28;20078;-40
2022/06/16 04:48:46;;;;;;;4.43;2.78;;;;;;;;;;5052788;28;20029;-39
2022/06/16 04:51:14;;;;;;;3.35;2.95;;;;;;;;;;5053790;28;20456;-40
2022/06/16 04:53:45;;;;;;;4.72;2.97;;;;;;;;;;5053737;28;20024;-40
2022/06/16 04:56:16;;;;;;;4.63;2.53;;;;;;;;;;5053666;28;20052;-39
2022/06/16 04:59:04;;;;;;;5.65;2.78;;;;;;;;;;5059666;28;20609;-40
2022/06/16 05:02:02;;;;;;;3.95;3.00;;;;;;;;;;5060036;28;20072;-39
2022/06/16 05:04:49;;;;;;;3.72;3.28;;;;;;;;;;5053609;28;20025;-39
2022/06/16 05:07:38;;;;;;;3.40;3.10;;;;;;;;;;5056801;28;20541;-40
2022/06/16 05:10:26;;;;;;;3.20;2.90;;;;;;;;;;5054593;28;20115;-39
2022/06/16 05:13:21;;;;;;;4.00;2.85;;;;;;;;;;5070008;28;20040;-41
2022/06/16 05:15:55;;;;;;;3.10;2.55;;;;;;;;;;5054989;28;20128;-40
2022/06/16 05:18:36;;;;;;;3.95;2.88;;;;;;;;;;5054517;28;20033;-39
2022/06/16 05:21:14;;;;;;;2.97;2.67;;;;;;;;;;5054982;28;20045;-39
2022/06/16 05:23:57;;;;;;;3.90;3.05;;;;;;;;;;5053303;28;20029;-39
2022/06/16 05:26:38;;;;;;;3.55;2.58;;;;;;;;;;5054306;28;20041;-40
2022/06/16 05:29:32;;;;;;;3.03;2.65;;;;;;;;;;5060837;28;20410;-40
2022/06/16 05:32:16;;;;;;;2.78;2.53;;;;;;;;;;5054440;28;20033;-40
2022/06/16 05:35:02;;;;;;;3.78;3.05;;;;;;;;;;5054313;28;20057;-39
2022/06/16 05:37:51;;;;;;;3.17;2.63;;;;;;;;;;5052983;28;20743;-40
2022/06/16 05:40:35;;;;;;;3.00;2.60;;;;;;;;;;5054284;28;20445;-40
2022/06/16 05:43:19;;;;;;;2.78;2.50;;;;;;;;;;5054291;28;20094;-40
2022/06/16 05:45:47;;;;;;;3.67;2.70;;;;;;;;;;5054030;28;20059;-40
2022/06/16 05:48:20;;;;;;;3.47;3.03;;;;;;;;;;5052756;28;20032;-39
2022/06/16 05:50:46;;;;;;;7.20;2.67;;;;;;;;;;5052645;28;20036;-40
2022/06/16 05:53:12;;;;;;;5.38;3.10;;;;;;;;;;5052721;28;20399;-40
2022/06/16 05:55:41;;;;;;;6.78;2.90;;;;;;;;;;5052428;28;20506;-39
2022/06/16 05:58:07;;;;;;;4.53;2.70;;;;;;;;;;5052577;28;20098;-40
2022/06/16 06:00:43;;;;;;;4.07;2.88;;;;;;;;;;5036466;28;20028;-40
2022/06/16 06:03:12;;;;;;;4.32;3.65;;;;;;;;;;5036277;28;20479;-40
2022/06/16 06:05:39;;;;;;;3.92;3.17;;;;;;;;;;5052421;28;20021;-40
2022/06/16 06:16:25;;;;;;;6.53;2.88;;;;;;;;;;5053409;28;20041;-40
2022/06/16 06:18:51;;;;;;;3.00;2.65;;;;;;;;;;5052157;28;20356;-40
2022/06/16 06:21:57;;;;;;;3.05;2.72;;;;;;;;;;5052130;28;20024;-39
2022/06/16 06:24:02;;;;;;;6.25;2.92;;;;;;;;;;5053360;28;20024;-40
2022/06/16 06:26:28;;;;;;;4.45;2.67;;;;;;;;;;5052064;28;20131;-40
2022/06/16 06:28:53;;;;;;;2.70;2.47;;;;;;;;;;5052007;28;20020;-40
2022/06/16 06:31:18;;;;;;;3.38;2.85;;;;;;;;;;5051988;28;20017;-40
2022/06/16 06:33:44;;;;;;;4.72;2.80;;;;;;;;;;5051817;28;20108;-40
2022/06/16 06:36:10;;;;;;;3.47;3.15;;;;;;;;;;5053138;28;20083;-40
2022/06/16 06:38:36;;;;;;;4.70;3.20;;;;;;;;;;5051633;28;20471;-40
2022/06/16 06:41:01;;;;;;;3.53;3.22;;;;;;;;;;5053132;28;20082;-40
2022/06/16 06:43:27;;;;;;;3.60;3.08;;;;;;;;;;5052953;28;20498;-39
2022/06/16 06:45:52;;;;;;;4.22;3.03;;;;;;;;;;5052944;28;20062;-40
2022/06/16 06:48:18;;;;;;;3.20;2.78;;;;;;;;;;5053230;28;20467;-40
2022/06/16 06:50:43;;;;;;;3.97;2.80;;;;;;;;;;5053014;28;20025;-40
2022/06/16 06:53:09;;;;;;;3.63;3.33;;;;;;;;;;5053174;28;20194;-40
2022/06/16 06:55:37;;;;;;;3.90;3.13;;;;;;;;;;5051424;28;20429;-40
2022/06/16 06:58:04;;;;;;;3.10;2.83;;;;;;;;;;5052665;28;20762;-40
2022/06/16 07:00:29;;;;;;;3.25;2.65;;;;;;;;;;5052673;28;20469;-39
2022/06/16 07:02:55;;;;;;;6.55;3.10;;;;;;;;;;5052670;28;20099;-40
2022/06/16 07:05:20;;;;;;;3.03;2.67;;;;;;;;;;5052818;28;20025;-40
2022/06/16 07:07:46;;;;;;;4.78;3.28;;;;;;;;;;5052427;28;20033;-40
2022/06/16 07:10:12;;;;;;;4.07;2.97;;;;;;;;;;5052744;28;20028;-40
2022/06/16 07:12:38;;;;;;;3.13;2.80;;;;;;;;;;5052388;28;20025;-40
2022/06/16 07:15:04;;;;;;;7.95;3.70;;;;;;;;;;5052242;28;20048;-39
2022/06/16 07:17:29;;;;;;;3.72;2.80;;;;;;;;;;5052842;28;20040;-40
2022/06/16 07:19:54;;;;;;;2.75;2.33;;;;;;;;;;5052622;28;20485;-40
2022/06/16 07:22:20;;;;;;;4.53;3.45;;;;;;;;;;5052314;28;20036;-40
2022/06/16 07:24:46;;;;;;;3.22;2.95;;;;;;;;;;5052470;28;20025;-39
2022/06/16 07:27:13;;;;;;;3.22;2.88;;;;;;;;;;5052169;28;20024;-39
2022/06/16 07:29:38;;;;;;;3.00;2.53;;;;;;;;;;5050754;28;20044;-39
2022/06/16 07:32:05;;;;;;;3.53;3.05;;;;;;;;;;5052102;28;20450;-39
2022/06/16 07:34:31;;;;;;;5.75;2.67;;;;;;;;;;5051883;28;20044;-39
2022/06/16 07:36:56;;;;;;;3.63;3.03;;;;;;;;;;5052251;28;20134;-40
2022/06/16 07:39:22;;;;;;;3.45;3.15;;;;;;;;;;5052252;28;20413;-39
2022/06/16 07:41:48;;;;;;;5.25;3.40;;;;;;;;;;5051701;28;20032;-39
2022/06/16 07:44:14;;;;;;;3.88;3.30;;;;;;;;;;5050727;28;20032;-39
2022/06/16 07:46:42;;;;;;;4.40;3.03;;;;;;;;;;5051725;28;20036;-40
2022/06/16 07:49:09;;;;;;;4.30;3.00;;;;;;;;;;5052015;28;20025;-40
2022/06/16 07:51:35;;;;;;;4.20;3.47;;;;;;;;;;5051749;28;20513;-39
2022/06/16 07:54:01;;;;;;;3.00;2.80;;;;;;;;;;5051795;28;20017;-40
2022/06/16 07:56:27;;;;;;;5.65;2.90;;;;;;;;;;5051490;28;20471;-39
2022/06/16 07:58:56;;;;;;;5.13;3.08;;;;;;;;;;5051805;28;20075;-40
2022/06/16 08:01:21;;;;;;;4.55;3.00;;;;;;;;;;5051680;28;20090;-40
2022/06/16 08:03:47;;;;;;;3.08;2.78;;;;;;;;;;5051539;28;20530;-40
2022/06/16 08:06:14;;;;;;;5.63;2.88;;;;;;;;;;5051517;28;20025;-40
2022/06/16 08:08:40;;;;;;;2.80;2.40;;;;;;;;;;5051649;28;20017;-42
2022/06/16 08:12:03;;;;;;;3.92;2.97;;;;;;;;;;5051435;28;20040;-40
2022/06/16 08:13:52;;;;;;;4.78;3.13;;;;;;;;;;5051214;28;20052;-40
2022/06/16 08:16:17;;;;;;;3.35;3.05;;;;;;;;;;5051290;28;20044;-40
2022/06/16 08:18:43;;;;;;;4.07;3.67;;;;;;;;;;5051531;28;20029;-39
2022/06/16 08:21:08;;;;;;;3.40;2.90;;;;;;;;;;5051339;28;20114;-39
2022/06/16 08:23:34;;;;;;;3.85;3.17;;;;;;;;;;5050832;28;20031;-40
2022/06/16 08:26:00;;;;;;;3.95;2.72;;;;;;;;;;5051372;28;20024;-40
2022/06/16 08:28:26;;;;;;;3.63;2.90;;;;;;;;;;5051282;28;20036;-40
2022/06/16 08:30:51;;;;;;;6.57;3.05;;;;;;;;;;5051096;28;20061;-40
2022/06/16 08:33:18;;;;;;;5.45;2.92;;;;;;;;;;5050293;28;20025;-42
2022/06/16 08:35:45;;;;;;;2.88;2.58;;;;;;;;;;5051023;28;20108;-39
2022/06/16 08:38:11;;;;;;;5.63;3.33;;;;;;;;;;5051419;28;20026;-40
2022/06/16 08:40:41;;;;;;;6.28;2.78;;;;;;;;;;5051079;28;20032;-40
2022/06/16 08:43:10;;;;;;;6.78;2.80;;;;;;;;;;5051191;28;20025;-39
2022/06/16 08:45:47;;;;;;;5.90;3.03;;;;;;;;;;5050986;28;20048;-40
2022/06/16 08:48:12;;;;;;;2.70;2.47;;;;;;;;;;5051437;28;20261;-39
2022/06/16 08:50:46;;;;;;;2.85;2.50;;;;;;;;;;5051034;28;20039;-40
2022/06/16 08:53:18;;;;;;;2.92;2.63;;;;;;;;;;5051298;28;20035;-39
2022/06/16 08:55:49;;;;;;;2.92;2.67;;;;;;;;;;5050932;28;20044;-40
2022/06/16 08:58:21;;;;;;;5.00;2.55;;;;;;;;;;5051028;28;20033;-39
2022/06/16 09:00:50;;;;;;;2.78;2.58;;;;;;;;;;5051175;28;20056;-40
2022/06/16 09:03:34;;;;;;;5.63;3.00;;;;;;;;;;5051270;28;20027;-39
2022/06/16 09:06:00;;;;;;;4.90;3.25;;;;;;;;;;5050995;28;20025;-40
2022/06/16 09:08:44;;;;;;;3.03;2.50;;;;;;;;;;5050870;28;20456;-40
2022/06/16 09:11:16;;;;;;;4.75;3.35;;;;;;;;;;5051115;28;20043;-40
2022/06/16 09:13:57;;;;;;;3.75;2.47;;;;;;;;;;5050749;28;20114;-40
2022/06/16 09:16:28;;;;;;;5.95;3.15;;;;;;;;;;5051002;28;20037;-40
2022/06/16 09:18:57;;;;;;;7.53;3.00;;;;;;;;;;5050615;28;20033;-39
2022/06/16 09:21:34;;;;;;;3.13;2.70;;;;;;;;;;5049540;28;20024;-39
2022/06/16 09:24:06;;;;;;;5.10;2.83;;;;;;;;;;5051103;28;20417;-39
2022/06/16 09:26:50;;;;;;;2.53;2.33;;;;;;;;;;5050666;28;20025;-40
2022/06/16 09:29:19;;;;;;;5.43;2.88;;;;;;;;;;5050618;28;20029;-40
2022/06/16 09:31:48;;;;;;;4.15;2.28;;;;;;;;;;5050842;28;20040;-39
2022/06/16 09:34:19;;;;;;;2.85;2.65;;;;;;;;;;5051093;28;20099;-40
2022/06/16 09:36:47;;;;;;;4.38;3.10;;;;;;;;;;5054341;28;20041;-40
2022/06/16 09:39:22;;;;;;;4.45;2.50;;;;;;;;;;5054322;28;20044;-40
2022/06/16 09:44:41;;;;;;;4.03;2.88;;;;;;;;;;5054333;28;20098;-40
2022/06/16 09:47:09;;;;;;;6.00;2.80;;;;;;;;;;5054133;28;20024;-39
2022/06/16 09:49:48;;;;;;;3.88;3.45;;;;;;;;;;5053923;28;20036;-40
2022/06/16 09:52:16;;;;;;;5.10;3.30;;;;;;;;;;5054317;28;20029;-39
2022/06/16 09:54:49;;;;;;;3.85;3.45;;;;;;;;;;5053951;28;20027;-40
2022/06/16 09:57:17;;;;;;;3.53;2.78;;;;;;;;;;5053798;28;20040;-40
2022/06/16 10:00:12;;;;;;;3.88;2.72;;;;;;;;;;5053775;28;20020;-40
2022/06/16 10:02:40;;;;;;;3.53;3.22;;;;;;;;;;5053104;28;20068;-40
2022/06/16 10:05:14;;;;;;;3.78;2.92;;;;;;;;;;5053779;28;20024;-39
2022/06/16 10:07:41;;;;;;;2.60;2.40;;;;;;;;;;5053885;28;20422;-40
2022/06/16 10:10:19;;;;;;;3.58;3.22;;;;;;;;;;5053657;28;20021;-39
2022/06/16 10:12:49;;;;;;;4.25;2.67;;;;;;;;;;5053608;28;20039;-39
2022/06/16 10:15:24;;;;;;;4.90;3.13;;;;;;;;;;5052084;28;20045;-40
2022/06/16 10:17:53;;;;;;;6.50;3.00;;;;;;;;;;5053721;28;20562;-39
2022/06/16 10:20:20;;;;;;;7.40;2.85;;;;;;;;;;5053688;28;20033;-40
2022/06/16 10:22:47;;;;;;;8.98;2.90;;;;;;;;;;5053681;28;20021;-40
2022/06/16 10:25:23;;;;;;;4.18;3.78;;;;;;;;;;5053292;28;20406;-40
2022/06/16 10:27:52;;;;;;;3.90;3.38;;;;;;;;;;5053255;28;20048;-41
2022/06/16 10:30:20;;;;;;;4.03;2.60;;;;;;;;;;5053270;28;20017;-40
2022/06/16 10:32:47;;;;;;;6.95;3.45;;;;;;;;;;5053409;28;20025;-40
2022/06/16 10:35:20;;;;;;;6.45;3.40;;;;;;;;;;5053482;28;20533;-40
2022/06/16 10:37:49;;;;;;;3.55;2.97;;;;;;;;;;5053072;28;20028;-40
2022/06/16 10:40:16;;;;;;;5.00;3.60;;;;;;;;;;5051984;28;20458;-40
2022/06/16 10:42:48;;;;;;;5.90;3.55;;;;;;;;;;5053027;28;20032;-40
2022/06/16 10:45:22;;;;;;;6.05;3.38;;;;;;;;;;5052726;28;20095;-40
2022/06/16 10:47:47;;;;;;;3.63;3.28;;;;;;;;;;5052816;28;20029;-40
2022/06/16 10:50:21;;;;;;;3.72;3.42;;;;;;;;;;5053082;28;20020;-39
2022/06/16 10:52:52;;;;;;;4.15;3.22;;;;;;;;;;5052694;28;20884;-40
2022/06/16 10:55:20;;;;;;;4.43;3.30;;;;;;;;;;5052765;28;20101;-40
2022/06/16 10:57:47;;;;;;;5.00;3.83;;;;;;;;;;5052691;28;20067;-39
2022/06/16 11:00:17;;;;;;;5.00;3.42;;;;;;;;;;5052721;28;20040;-40
2022/06/16 11:03:02;;;;;;;8.38;3.70;;;;;;;;;;5052644;28;20025;-40
2022/06/16 11:05:29;;;;;;;4.15;3.63;;;;;;;;;;5052951;28;20060;-40
2022/06/16 11:08:03;;;;;;;11.55;3.38;;;;;;;;;;5052449;28;20016;-39
2022/06/16 11:10:31;;;;;;;4.20;3.50;;;;;;;;;;5052785;28;20060;-40
2022/06/16 11:12:57;;;;;;;5.18;3.47;;;;;;;;;;5052552;28;20052;-40
2022/06/16 11:15:27;;;;;;;4.53;3.60;;;;;;;;;;5052157;28;20092;-40
2022/06/16 11:17:57;;;;;;;4.40;3.88;;;;;;;;;;5052395;28;20561;-40
2022/06/16 11:20:36;;;;;;;4.85;3.25;;;;;;;;;;5051089;28;20040;-39
2022/06/16 11:23:22;;;;;;;4.53;4.13;;;;;;;;;;5051049;28;20037;-40
2022/06/16 11:26:06;;;;;;;7.10;3.13;;;;;;;;;;5051412;28;20052;-40
2022/06/16 11:28:40;;;;;;;6.70;3.58;;;;;;;;;;5052249;28;20144;-40
2022/06/16 11:31:06;;;;;;;4.57;4.18;;;;;;;;;;5052222;28;20027;-40
2022/06/16 11:36:36;;;;;;;3.70;3.40;;;;;;;;;;5051979;28;20065;-39
2022/06/16 11:39:05;;;;;;;5.18;3.53;;;;;;;;;;5051931;28;20064;-40
2022/06/16 11:41:32;;;;;;;3.92;3.53;;;;;;;;;;5051865;28;20024;-39
2022/06/16 11:43:58;;;;;;;3.95;3.45;;;;;;;;;;5051883;28;20056;-39
2022/06/16 11:46:39;;;;;;;4.50;3.28;;;;;;;;;;5051990;28;20029;-39
2022/06/16 11:49:09;;;;;;;6.55;3.55;;;;;;;;;;5051909;28;20028;-40
2022/06/16 11:51:40;;;;;;;4.80;3.47;;;;;;;;;;5051705;28;20025;-40
2022/06/16 11:54:14;;;;;;;4.10;3.70;;;;;;;;;;5051697;28;20036;-40
2022/06/16 11:56:56;;;;;;;4.10;3.65;;;;;;;;;;5051432;28;20033;-40
2022/06/16 11:59:24;;;;;;;5.32;3.40;;;;;;;;;;5051959;28;20448;-39
2022/06/16 12:01:56;;;;;;;5.30;4.13;;;;;;;;;;5051527;28;20017;-40
2022/06/16 12:04:22;;;;;;;4.40;3.33;;;;;;;;;;5051650;28;20039;-40
2022/06/16 12:07:04;;;;;;;5.55;4.00;;;;;;;;;;5051550;28;20371;-40
2022/06/16 12:09:40;;;;;;;3.58;3.25;;;;;;;;;;5051595;28;20115;-40
2022/06/16 12:12:11;;;;;;;5.47;3.80;;;;;;;;;;5051410;28;20025;-40
2022/06/16 12:14:37;;;;;;;5.72;3.80;;;;;;;;;;5051276;28;20049;-40
2022/06/16 12:17:08;;;;;;;5.28;4.38;;;;;;;;;;5051268;28;20132;-39
2022/06/16 12:19:56;;;;;;;12.65;4.40;;;;;;;;;;5051181;28;20045;-40
2022/06/16 12:22:35;;;;;;;11.93;4.38;;;;;;;;;;5049973;28;20039;-39
2022/06/16 12:25:04;;;;;;;5.15;4.30;;;;;;;;;;5051566;28;20029;-40
2022/06/16 12:27:35;;;;;;;4.63;4.22;;;;;;;;;;5051227;28;20017;-44
2022/06/16 12:30:20;;;;;;;5.68;3.85;;;;;;;;;;5051366;28;20479;-40
2022/06/16 12:32:49;;;;;;;7.45;5.40;;;;;;;;;;5051102;28;20049;-40
2022/06/16 12:35:21;;;;;;;5.35;4.70;;;;;;;;;;5051203;28;20480;-40
2022/06/16 12:37:55;;;;;;;5.47;4.78;;;;;;;;;;5049823;28;20040;-40
2022/06/16 12:40:21;;;;;;;5.78;3.83;;;;;;;;;;5051141;28;20029;-39
2022/06/16 12:42:50;;;;;;;10.13;4.22;;;;;;;;;;5051073;28;20025;-40
2022/06/16 12:45:18;;;;;;;5.07;4.22;;;;;;;;;;5051139;28;20039;-40
2022/06/16 12:47:48;;;;;;;5.22;4.72;;;;;;;;;;5050937;28;20021;-40
2022/06/16 12:50:20;;;;;;;5.38;4.35;;;;;;;;;;5051058;28;20584;-40
2022/06/16 12:52:53;;;;;;;6.55;4.85;;;;;;;;;;5051317;28;20071;-40
2022/06/16 12:55:21;;;;;;;4.82;4.35;;;;;;;;;;5051163;28;20483;-40
2022/06/16 12:57:53;;;;;;;6.30;4.20;;;;;;;;;;5050843;28;20017;-40
2022/06/16 13:00:20;;;;;;;5.75;4.78;;;;;;;;;;5051304;28;20103;-40
2022/06/16 13:02:49;;;;;;;5.30;4.30;;;;;;;;;;5051164;28;20033;-40
2022/06/16 13:05:18;;;;;;;7.53;4.43;;;;;;;;;;5050904;28;20463;-40
2022/06/16 13:07:48;;;;;;;7.57;4.68;;;;;;;;;;5051067;28;20017;-40
2022/06/16 13:10:15;;;;;;;9.60;4.63;;;;;;;;;;5053245;28;20036;-40
2022/06/16 13:12:43;;;;;;;7.68;5.18;;;;;;;;;;5055079;28;20352;-40
2022/06/16 13:15:24;;;;;;;5.32;4.32;;;;;;;;;;5054481;28;20072;-40
2022/06/16 13:17:53;;;;;;;6.10;5.15;;;;;;;;;;5054624;28;20032;-40
2022/06/16 13:20:21;;;;;;;10.05;3.63;;;;;;;;;;5054474;28;20029;-40
2022/06/16 13:23:12;;;;;;;5.00;4.50;;;;;;;;;;5054743;28;20032;-39
2022/06/16 13:25:48;;;;;;;5.65;4.10;;;;;;;;;;5053996;28;20129;-39
2022/06/16 13:28:34;;;;;;;8.98;4.82;;;;;;;;;;5054408;28;20098;-40
2022/06/16 13:31:11;;;;;;;6.93;4.65;;;;;;;;;;5054200;28;20087;-39
2022/06/16 13:33:47;;;;;;;5.95;5.35;;;;;;;;;;5054473;28;20029;-39
2022/06/16 13:36:36;;;;;;;7.55;4.47;;;;;;;;;;5054171;28;20051;-40
2022/06/16 13:39:07;;;;;;;6.57;5.10;;;;;;;;;;5053760;28;20422;-40
2022/06/16 13:41:39;;;;;;;8.90;4.95;;;;;;;;;;5054116;28;20033;-41
2022/06/16 13:44:14;;;;;;;12.02;5.25;;;;;;;;;;5054146;28;20068;-40
2022/06/16 13:46:49;;;;;;;5.47;4.15;;;;;;;;;;5054045;28;20095;-40
2022/06/16 13:49:44;;;;;;;5.30;4.40;;;;;;;;;;5054394;28;20028;-40
2022/06/16 13:52:13;;;;;;;23.65;5.82;;;;;;;;;;5053259;28;20044;-39
2022/06/16 13:54:39;;;;;;;4.53;4.13;;;;;;;;;;5054230;28;20104;-40
2022/06/16 13:57:18;;;;;;;6.43;4.20;;;;;;;;;;5054385;28;20420;-40
2022/06/16 13:59:45;;;;;;;6.45;5.03;;;;;;;;;;5054144;28;20431;-39
2022/06/16 14:02:16;;;;;;;4.43;4.05;;;;;;;;;;5053835;28;20020;-40
2022/06/16 14:05:03;;;;;;;8.65;5.13;;;;;;;;;;5053710;28;20037;-39
2022/06/16 14:07:32;;;;;;;5.72;4.00;;;;;;;;;;5053635;28;20287;-40
2022/06/16 14:10:05;;;;;;;5.78;4.30;;;;;;;;;;5053704;28;20021;-40
2022/06/16 14:13:03;;;;;;;7.22;3.97;;;;;;;;;;5052446;28;20482;-41
2022/06/16 14:15:47;;;;;;;4.80;3.95;;;;;;;;;;5052216;28;20056;-40
2022/06/16 14:18:13;;;;;;;;;;;;;;;;;;5053951;28;20036;-40
2022/06/16 14:20:39;;;;;;;8.60;4.63;;;;;;;;;;5053071;28;19912;-40
2022/06/16 14:23:09;;;;;;;3.70;3.40;;;;;;;;;;5052374;28;20033;-40
2022/06/16 14:25:41;;;;;;;4.70;3.83;;;;;;;;;;5053365;28;20033;-40
2022/06/16 14:28:09;;;;;;;5.72;4.13;;;;;;;;;;5053396;28;20115;-40
2022/06/16 14:30:39;;;;;;;6.32;4.43;;;;;;;;;;5053533;28;20068;-40
2022/06/16 14:33:08;;;;;;;4.10;3.70;;;;;;;;;;5053382;28;20029;-40
2022/06/16 14:35:35;;;;;;;4.80;3.63;;;;;;;;;;5053422;28;20029;-40
2022/06/16 14:38:05;;;;;;;4.07;3.55;;;;;;;;;;5053161;28;20483;-40
2022/06/16 14:40:34;;;;;;;4.72;3.55;;;;;;;;;;5053173;28;20025;-40
2022/06/16 14:43:05;;;;;;;4.63;4.15;;;;;;;;;;5053141;28;20013;-39
2022/06/16 14:45:37;;;;;;;5.13;4.63;;;;;;;;;;5053059;28;20051;-40
2022/06/16 14:48:05;;;;;;;10.68;4.57;;;;;;;;;;5052953;28;20029;-40
2022/06/16 14:50:48;;;;;;;7.78;4.22;;;;;;;;;;5052950;28;20741;-40
2022/06/16 14:53:16;;;;;;;13.13;3.85;;;;;;;;;;5053230;28;20029;-40
2022/06/16 14:55:51;;;;;;;9.68;3.63;;;;;;;;;;5052928;28;20028;-40
2022/06/16 14:58:17;;;;;;;8.32;4.50;;;;;;;;;;5052809;28;20112;-39
2022/06/16 15:00:44;;;;;;;6.25;4.20;;;;;;;;;;5053013;28;20163;-40
2022/06/16 15:03:12;;;;;;;6.10;3.40;;;;;;;;;;5052585;28;20039;-40
2022/06/16 15:05:38;;;;;;;4.85;3.80;;;;;;;;;;5052577;28;20031;-40
2022/06/16 15:08:04;;;;;;;4.90;4.00;;;;;;;;;;5052578;28;20032;-40
2022/06/16 15:10:31;;;;;;;4.60;4.15;;;;;;;;;;5052563;28;20029;-40
2022/06/16 15:13:01;;;;;;;6.28;4.00;;;;;;;;;;5052773;28;20095;-40
2022/06/16 15:15:28;;;;;;;3.72;3.38;;;;;;;;;;5052244;28;20414;-40
2022/06/16 15:18:15;;;;;;;5.10;3.95;;;;;;;;;;5052318;28;20107;-40
2022/06/16 15:20:58;;;;;;;5.30;4.35;;;;;;;;;;5052622;28;20100;-40
2022/06/16 15:23:30;;;;;;;11.18;4.30;;;;;;;;;;5051027;28;20029;-40
2022/06/16 15:25:57;;;;;;;12.85;4.10;;;;;;;;;;5052230;28;20036;-40